sensor_id;sensor_type;location;lat;lon;timestamp;pressure;altitude;pressure_sealevel;temperature;humidity
70133;BME280;57495;49.922;7.966;2022-10-16T00:00:41;99677.75;;;14.11;100.00
70133;BME280;57495;49.922;7.966;2022-10-16T00:02:44;99692.19;;;14.10;100.00
70133;BME280;57495;49.922;7.966;2022-10-16T00:04:45;99695.69;;;14.19;100.00
70133;BME280;57495;49.922;7.966;2022-10-16T00:06:47;99687.44;;;14.20;100.00
70133;BME280;57495;49.922;7.966;2022-10-16T00:08:49;99674.16;;;14.19;100.00
70133;BME280;57495;49.922;7.966;2022-10-16T00:10:51;99671.66;;;14.17;100.00
70133;BME280;57495;49.922;7.966;2022-10-16T00:12:52;99680.59;;;14.18;100.00
70133;BME280;57495;49.922;7.966;2022-10-16T00:14:53;99679.22;;;14.22;100.00
70133;BME280;57495;49.922;7.966;2022-10-16T00:16:55;99668.56;;;14.28;100.00
70133;BME280;57495;49.922;7.966;2022-10-16T00:18:58;99670.91;;;14.31;100.00
70133;BME280;57495;49.922;7.966;2022-10-16T00:21:02;99682.34;;;14.34;100.00
70133;BME280;57495;49.922;7.966;2022-10-16T00:23:04;99685.03;;;14.34;100.00
70133;BME280;57495;49.922;7.966;2022-10-16T00:25:06;99681.16;;;14.36;100.00
70133;BME280;57495;49.922;7.966;2022-10-16T00:27:08;99678.47;;;14.36;100.00
70133;BME280;57495;49.922;7.966;2022-10-16T00:29:10;99676.78;;;14.35;100.00
70133;BME280;57495;49.922;7.966;2022-10-16T00:31:11;99678.16;;;14.31;100.00
70133;BME280;57495;49.922;7.966;2022-10-16T00:33:13;99683.53;;;14.31;100.00
70133;BME280;57495;49.922;7.966;2022-10-16T00:35:16;99672.13;;;14.29;100.00
70133;BME280;57495;49.922;7.966;2022-10-16T00:37:17;99675.63;;;14.29;100.00
70133;BME280;57495;49.922;7.966;2022-10-16T00:39:19;99683.84;;;14.36;100.00
70133;BME280;57495;49.922;7.966;2022-10-16T00:41:22;99684.78;;;14.52;100.00
70133;BME280;57495;49.922;7.966;2022-10-16T00:43:36;99688.66;;;14.57;100.00
70133;BME280;57495;49.922;7.966;2022-10-16T00:45:38;99690.19;;;14.43;100.00
70133;BME280;57495;49.922;7.966;2022-10-16T00:47:42;99687.22;;;14.30;100.00
70133;BME280;57495;49.922;7.966;2022-10-16T00:49:47;99689.97;;;14.22;100.00
70133;BME280;57495;49.922;7.966;2022-10-16T00:51:52;99708.13;;;14.20;100.00
70133;BME280;57495;49.922;7.966;2022-10-16T00:53:55;99698.69;;;14.24;100.00
70133;BME280;57495;49.922;7.966;2022-10-16T00:55:56;99687.13;;;14.23;100.00
70133;BME280;57495;49.922;7.966;2022-10-16T00:57:58;99686.75;;;14.26;100.00
70133;BME280;57495;49.922;7.966;2022-10-16T01:00:00;99686.56;;;14.28;100.00
70133;BME280;57495;49.922;7.966;2022-10-16T01:02:02;99697.34;;;14.28;100.00
70133;BME280;57495;49.922;7.966;2022-10-16T01:04:03;99685.56;;;14.29;100.00
70133;BME280;57495;49.922;7.966;2022-10-16T01:06:12;99694.47;;;14.29;100.00
70133;BME280;57495;49.922;7.966;2022-10-16T01:08:25;99701.34;;;14.32;100.00
70133;BME280;57495;49.922;7.966;2022-10-16T01:10:35;99701.16;;;14.34;100.00
70133;BME280;57495;49.922;7.966;2022-10-16T01:12:42;99698.47;;;14.34;100.00
70133;BME280;57495;49.922;7.966;2022-10-16T01:14:48;99693.94;;;14.34;100.00
70133;BME280;57495;49.922;7.966;2022-10-16T01:16:55;99695.97;;;14.32;100.00
70133;BME280;57495;49.922;7.966;2022-10-16T01:19:06;99694.63;;;14.28;100.00
70133;BME280;57495;49.922;7.966;2022-10-16T01:21:12;99709.41;;;14.32;100.00
70133;BME280;57495;49.922;7.966;2022-10-16T01:23:27;99708.47;;;14.17;100.00
70133;BME280;57495;49.922;7.966;2022-10-16T01:25:37;99704.28;;;14.14;100.00
70133;BME280;57495;49.922;7.966;2022-10-16T01:27:44;99700.72;;;14.22;100.00
70133;BME280;57495;49.922;7.966;2022-10-16T01:29:52;99693.66;;;14.21;100.00
70133;BME280;57495;49.922;7.966;2022-10-16T01:31:57;99697.88;;;14.23;100.00
70133;BME280;57495;49.922;7.966;2022-10-16T01:34:02;99702.75;;;14.20;100.00
70133;BME280;57495;49.922;7.966;2022-10-16T01:36:10;99706.22;;;14.37;100.00
70133;BME280;57495;49.922;7.966;2022-10-16T01:38:17;99715.44;;;14.34;100.00
70133;BME280;57495;49.922;7.966;2022-10-16T01:40:23;99729.28;;;14.23;100.00
70133;BME280;57495;49.922;7.966;2022-10-16T01:42:31;99728.59;;;14.29;100.00
70133;BME280;57495;49.922;7.966;2022-10-16T01:44:37;99722.03;;;14.31;100.00
70133;BME280;57495;49.922;7.966;2022-10-16T01:46:42;99708.41;;;14.33;100.00
70133;BME280;57495;49.922;7.966;2022-10-16T01:48:44;99709.06;;;14.35;100.00
70133;BME280;57495;49.922;7.966;2022-10-16T01:50:51;99705.56;;;14.35;100.00
70133;BME280;57495;49.922;7.966;2022-10-16T01:52:56;99709.72;;;14.37;100.00
70133;BME280;57495;49.922;7.966;2022-10-16T01:55:01;99709.91;;;14.36;100.00
70133;BME280;57495;49.922;7.966;2022-10-16T01:57:05;99715.13;;;14.37;100.00
70133;BME280;57495;49.922;7.966;2022-10-16T01:59:12;99720.22;;;14.24;100.00
70133;BME280;57495;49.922;7.966;2022-10-16T02:01:19;99729.44;;;14.29;100.00
70133;BME280;57495;49.922;7.966;2022-10-16T02:03:22;99727.75;;;14.28;100.00
70133;BME280;57495;49.922;7.966;2022-10-16T02:05:26;99726.91;;;14.28;100.00
70133;BME280;57495;49.922;7.966;2022-10-16T02:07:31;99736.00;;;14.27;100.00
70133;BME280;57495;49.922;7.966;2022-10-16T02:09:33;99749.13;;;14.22;100.00
70133;BME280;57495;49.922;7.966;2022-10-16T02:11:35;99740.41;;;14.20;100.00
70133;BME280;57495;49.922;7.966;2022-10-16T02:13:39;99736.84;;;14.19;100.00
70133;BME280;57495;49.922;7.966;2022-10-16T02:15:42;99734.38;;;14.18;100.00
70133;BME280;57495;49.922;7.966;2022-10-16T02:17:45;99737.06;;;14.09;100.00
70133;BME280;57495;49.922;7.966;2022-10-16T02:19:48;99735.03;;;14.20;100.00
70133;BME280;57495;49.922;7.966;2022-10-16T02:21:54;99739.03;;;14.24;100.00
70133;BME280;57495;49.922;7.966;2022-10-16T02:24:03;99746.13;;;14.17;100.00
70133;BME280;57495;49.922;7.966;2022-10-16T02:26:09;99747.13;;;14.24;100.00
70133;BME280;57495;49.922;7.966;2022-10-16T02:28:16;99758.38;;;14.27;100.00
70133;BME280;57495;49.922;7.966;2022-10-16T02:30:21;99750.47;;;14.26;100.00
70133;BME280;57495;49.922;7.966;2022-10-16T02:32:29;99741.41;;;14.27;100.00
70133;BME280;57495;49.922;7.966;2022-10-16T02:34:33;99731.63;;;14.26;100.00
70133;BME280;57495;49.922;7.966;2022-10-16T02:36:35;99736.84;;;14.27;100.00
70133;BME280;57495;49.922;7.966;2022-10-16T02:38:38;99732.31;;;14.28;100.00
70133;BME280;57495;49.922;7.966;2022-10-16T02:40:41;99743.06;;;14.28;100.00
70133;BME280;57495;49.922;7.966;2022-10-16T02:42:43;99740.84;;;14.31;100.00
70133;BME280;57495;49.922;7.966;2022-10-16T02:44:44;99745.25;;;14.33;100.00
70133;BME280;57495;49.922;7.966;2022-10-16T02:46:46;99743.06;;;14.28;100.00
70133;BME280;57495;49.922;7.966;2022-10-16T02:48:47;99737.34;;;14.23;100.00
70133;BME280;57495;49.922;7.966;2022-10-16T02:50:50;99748.09;;;14.31;100.00
70133;BME280;57495;49.922;7.966;2022-10-16T02:52:52;99746.28;;;14.23;100.00
70133;BME280;57495;49.922;7.966;2022-10-16T02:54:53;99744.41;;;14.24;100.00
70133;BME280;57495;49.922;7.966;2022-10-16T02:56:55;99739.03;;;14.24;100.00
70133;BME280;57495;49.922;7.966;2022-10-16T02:58:57;99747.13;;;14.24;100.00
70133;BME280;57495;49.922;7.966;2022-10-16T03:00:58;99747.97;;;14.16;100.00
70133;BME280;57495;49.922;7.966;2022-10-16T03:03:00;99749.16;;;14.14;100.00
70133;BME280;57495;49.922;7.966;2022-10-16T03:05:01;99749.81;;;14.16;100.00
70133;BME280;57495;49.922;7.966;2022-10-16T03:07:04;99762.59;;;14.22;100.00
70133;BME280;57495;49.922;7.966;2022-10-16T03:09:05;99764.63;;;14.20;100.00
70133;BME280;57495;49.922;7.966;2022-10-16T03:11:08;99757.16;;;14.30;100.00
70133;BME280;57495;49.922;7.966;2022-10-16T03:13:09;99751.44;;;14.33;100.00
70133;BME280;57495;49.922;7.966;2022-10-16T03:15:11;99749.31;;;14.20;100.00
70133;BME280;57495;49.922;7.966;2022-10-16T03:17:12;99742.06;;;14.21;100.00
70133;BME280;57495;49.922;7.966;2022-10-16T03:19:17;99745.13;;;14.18;100.00
70133;BME280;57495;49.922;7.966;2022-10-16T03:21:18;99738.38;;;14.14;100.00
70133;BME280;57495;49.922;7.966;2022-10-16T03:23:21;99741.44;;;14.10;100.00
70133;BME280;57495;49.922;7.966;2022-10-16T03:25:23;99749.69;;;14.09;100.00
70133;BME280;57495;49.922;7.966;2022-10-16T03:27:24;99746.81;;;14.10;100.00
70133;BME280;57495;49.922;7.966;2022-10-16T03:29:26;99751.50;;;14.17;100.00
70133;BME280;57495;49.922;7.966;2022-10-16T03:31:29;99749.16;;;14.14;100.00
70133;BME280;57495;49.922;7.966;2022-10-16T03:33:31;99758.06;;;14.14;100.00
70133;BME280;57495;49.922;7.966;2022-10-16T03:35:32;99767.31;;;14.11;100.00
70133;BME280;57495;49.922;7.966;2022-10-16T03:37:34;99777.19;;;14.19;100.00
70133;BME280;57495;49.922;7.966;2022-10-16T03:39:36;99773.50;;;14.20;100.00
70133;BME280;57495;49.922;7.966;2022-10-16T03:41:38;99769.25;;;14.34;100.00
70133;BME280;57495;49.922;7.966;2022-10-16T03:43:39;99755.50;;;14.29;100.00
70133;BME280;57495;49.922;7.966;2022-10-16T03:45:41;99750.13;;;14.21;100.00
70133;BME280;57495;49.922;7.966;2022-10-16T03:47:42;99762.56;;;14.30;100.00
70133;BME280;57495;49.922;7.966;2022-10-16T03:49:43;99759.03;;;14.21;100.00
70133;BME280;57495;49.922;7.966;2022-10-16T03:51:45;99757.88;;;14.16;100.00
70133;BME280;57495;49.922;7.966;2022-10-16T03:53:46;99774.34;;;14.21;100.00
70133;BME280;57495;49.922;7.966;2022-10-16T03:55:49;99778.03;;;14.28;100.00
70133;BME280;57495;49.922;7.966;2022-10-16T03:57:51;99769.66;;;14.15;100.00
70133;BME280;57495;49.922;7.966;2022-10-16T03:59:52;99766.16;;;14.14;100.00
70133;BME280;57495;49.922;7.966;2022-10-16T04:01:53;99763.63;;;14.13;100.00
70133;BME280;57495;49.922;7.966;2022-10-16T04:03:55;99756.72;;;14.10;100.00
70133;BME280;57495;49.922;7.966;2022-10-16T04:05:56;99757.59;;;14.10;100.00
70133;BME280;57495;49.922;7.966;2022-10-16T04:07:57;99759.91;;;14.14;100.00
70133;BME280;57495;49.922;7.966;2022-10-16T04:09:59;99754.53;;;14.14;100.00
70133;BME280;57495;49.922;7.966;2022-10-16T04:12:02;99760.94;;;14.13;100.00
70133;BME280;57495;49.922;7.966;2022-10-16T04:14:03;99760.41;;;14.25;100.00
70133;BME280;57495;49.922;7.966;2022-10-16T04:16:05;99759.19;;;14.28;100.00
70133;BME280;57495;49.922;7.966;2022-10-16T04:18:06;99761.56;;;14.31;100.00
70133;BME280;57495;49.922;7.966;2022-10-16T04:20:08;99763.03;;;14.42;100.00
70133;BME280;57495;49.922;7.966;2022-10-16T04:22:10;99773.09;;;14.40;100.00
70133;BME280;57495;49.922;7.966;2022-10-16T04:24:11;99767.94;;;14.30;100.00
70133;BME280;57495;49.922;7.966;2022-10-16T04:26:12;99765.78;;;14.17;100.00
70133;BME280;57495;49.922;7.966;2022-10-16T04:28:15;99781.41;;;14.22;100.00
70133;BME280;57495;49.922;7.966;2022-10-16T04:30:16;99777.03;;;14.21;100.00
70133;BME280;57495;49.922;7.966;2022-10-16T04:32:18;99777.38;;;14.26;100.00
70133;BME280;57495;49.922;7.966;2022-10-16T04:34:19;99781.75;;;14.19;100.00
70133;BME280;57495;49.922;7.966;2022-10-16T04:36:21;99783.94;;;14.15;100.00
70133;BME280;57495;49.922;7.966;2022-10-16T04:38:22;99793.88;;;14.06;100.00
70133;BME280;57495;49.922;7.966;2022-10-16T04:40:23;99790.00;;;14.09;100.00
70133;BME280;57495;49.922;7.966;2022-10-16T04:42:25;99795.22;;;14.10;100.00
70133;BME280;57495;49.922;7.966;2022-10-16T04:44:28;99784.09;;;14.14;100.00
70133;BME280;57495;49.922;7.966;2022-10-16T04:46:29;99786.78;;;14.14;100.00
70133;BME280;57495;49.922;7.966;2022-10-16T04:48:31;99789.50;;;14.14;100.00
70133;BME280;57495;49.922;7.966;2022-10-16T04:50:32;99786.63;;;14.15;100.00
70133;BME280;57495;49.922;7.966;2022-10-16T04:52:33;99795.53;;;14.16;100.00
70133;BME280;57495;49.922;7.966;2022-10-16T04:54:35;99788.50;;;14.15;100.00
70133;BME280;57495;49.922;7.966;2022-10-16T04:56:36;99791.19;;;14.15;100.00
70133;BME280;57495;49.922;7.966;2022-10-16T04:58:43;99790.19;;;14.07;100.00
70133;BME280;57495;49.922;7.966;2022-10-16T05:00:46;99786.50;;;14.08;100.00
70133;BME280;57495;49.922;7.966;2022-10-16T05:02:47;99780.75;;;14.11;100.00
70133;BME280;57495;49.922;7.966;2022-10-16T05:04:51;99781.13;;;14.08;100.00
70133;BME280;57495;49.922;7.966;2022-10-16T05:06:52;99791.50;;;14.11;100.00
70133;BME280;57495;49.922;7.966;2022-10-16T05:08:54;99784.09;;;14.14;100.00
70133;BME280;57495;49.922;7.966;2022-10-16T05:10:55;99786.50;;;14.08;100.00
70133;BME280;57495;49.922;7.966;2022-10-16T05:12:57;99785.63;;;14.08;100.00
70133;BME280;57495;49.922;7.966;2022-10-16T05:14:58;99800.59;;;14.10;100.00
70133;BME280;57495;49.922;7.966;2022-10-16T05:17:01;99792.00;;;14.15;100.00
70133;BME280;57495;49.922;7.966;2022-10-16T05:19:03;99791.69;;;14.18;100.00
70133;BME280;57495;49.922;7.966;2022-10-16T05:21:05;99785.09;;;14.21;100.00
70133;BME280;57495;49.922;7.966;2022-10-16T05:23:06;99795.53;;;14.24;100.00
70133;BME280;57495;49.922;7.966;2022-10-16T05:25:10;99795.88;;;14.21;100.00
70133;BME280;57495;49.922;7.966;2022-10-16T05:27:11;99802.94;;;14.22;100.00
70133;BME280;57495;49.922;7.966;2022-10-16T05:29:19;99805.63;;;14.22;100.00
70133;BME280;57495;49.922;7.966;2022-10-16T05:31:20;99800.91;;;14.24;100.00
70133;BME280;57495;49.922;7.966;2022-10-16T05:33:25;99816.22;;;14.23;100.00
70133;BME280;57495;49.922;7.966;2022-10-16T05:35:26;99819.41;;;14.19;100.00
70133;BME280;57495;49.922;7.966;2022-10-16T05:37:28;99821.59;;;14.23;100.00
70133;BME280;57495;49.922;7.966;2022-10-16T05:39:29;99817.38;;;14.21;100.00
70133;BME280;57495;49.922;7.966;2022-10-16T05:41:30;99821.44;;;14.17;100.00
70133;BME280;57495;49.922;7.966;2022-10-16T05:43:32;99819.72;;;14.16;100.00
70133;BME280;57495;49.922;7.966;2022-10-16T05:45:33;99828.50;;;14.18;100.00
70133;BME280;57495;49.922;7.966;2022-10-16T05:47:35;99823.41;;;14.23;100.00
70133;BME280;57495;49.922;7.966;2022-10-16T05:49:38;99826.59;;;14.26;100.00
70133;BME280;57495;49.922;7.966;2022-10-16T05:51:39;99828.31;;;14.27;100.00
70133;BME280;57495;49.922;7.966;2022-10-16T05:53:41;99828.97;;;14.29;100.00
70133;BME280;57495;49.922;7.966;2022-10-16T05:55:43;99831.66;;;14.29;100.00
70133;BME280;57495;49.922;7.966;2022-10-16T05:57:54;99833.31;;;14.30;100.00
70133;BME280;57495;49.922;7.966;2022-10-16T05:59:55;99835.69;;;14.34;100.00
70133;BME280;57495;49.922;7.966;2022-10-16T06:01:57;99837.38;;;14.35;100.00
70133;BME280;57495;49.922;7.966;2022-10-16T06:03:58;99843.56;;;14.35;100.00
70133;BME280;57495;49.922;7.966;2022-10-16T06:06:07;99840.38;;;14.31;100.00
70133;BME280;57495;49.922;7.966;2022-10-16T06:08:08;99833.16;;;14.32;100.00
70133;BME280;57495;49.922;7.966;2022-10-16T06:10:10;99827.78;;;14.32;100.00
70133;BME280;57495;49.922;7.966;2022-10-16T06:12:11;99825.09;;;14.32;100.00
70133;BME280;57495;49.922;7.966;2022-10-16T06:14:13;99825.09;;;14.32;100.00
70133;BME280;57495;49.922;7.966;2022-10-16T06:16:14;99818.88;;;14.31;100.00
70133;BME280;57495;49.922;7.966;2022-10-16T06:18:15;99828.97;;;14.29;100.00
70133;BME280;57495;49.922;7.966;2022-10-16T06:20:17;99834.19;;;14.31;100.00
70133;BME280;57495;49.922;7.966;2022-10-16T06:22:20;99831.84;;;14.20;100.00
70133;BME280;57495;49.922;7.966;2022-10-16T06:24:21;99845.44;;;14.26;100.00
70133;BME280;57495;49.922;7.966;2022-10-16T06:26:24;99845.09;;;14.29;100.00
70133;BME280;57495;49.922;7.966;2022-10-16T06:28:26;99843.25;;;14.30;100.00
70133;BME280;57495;49.922;7.966;2022-10-16T06:30:27;99850.50;;;14.29;100.00
70133;BME280;57495;49.922;7.966;2022-10-16T06:32:29;99854.00;;;14.30;100.00
70133;BME280;57495;49.922;7.966;2022-10-16T06:34:30;99853.84;;;14.31;100.00
70133;BME280;57495;49.922;7.966;2022-10-16T06:36:31;99848.28;;;14.33;100.00
70133;BME280;57495;49.922;7.966;2022-10-16T06:38:34;99849.13;;;14.34;100.00
70133;BME280;57495;49.922;7.966;2022-10-16T06:40:36;99847.28;;;14.34;100.00
70133;BME280;57495;49.922;7.966;2022-10-16T06:42:37;99863.25;;;14.36;100.00
70133;BME280;57495;49.922;7.966;2022-10-16T06:44:39;99866.97;;;14.35;100.00
70133;BME280;57495;49.922;7.966;2022-10-16T06:46:40;99868.63;;;14.36;100.00
70133;BME280;57495;49.922;7.966;2022-10-16T06:48:41;99880.91;;;14.38;100.00
70133;BME280;57495;49.922;7.966;2022-10-16T06:50:43;99874.00;;;14.36;100.00
70133;BME280;57495;49.922;7.966;2022-10-16T06:52:44;99869.47;;;14.36;100.00
70133;BME280;57495;49.922;7.966;2022-10-16T06:54:47;99879.06;;;14.39;100.00
70133;BME280;57495;49.922;7.966;2022-10-16T06:56:50;99869.94;;;14.40;100.00
70133;BME280;57495;49.922;7.966;2022-10-16T06:58:54;99865.78;;;14.37;100.00
70133;BME280;57495;49.922;7.966;2022-10-16T07:00:55;99876.03;;;14.34;100.00
70133;BME280;57495;49.922;7.966;2022-10-16T07:02:57;99880.72;;;14.40;100.00
70133;BME280;57495;49.922;7.966;2022-10-16T07:04:59;99869.47;;;14.28;100.00
70133;BME280;57495;49.922;7.966;2022-10-16T07:07:00;99887.97;;;14.23;100.00
70133;BME280;57495;49.922;7.966;2022-10-16T07:09:05;99885.78;;;14.26;100.00
70133;BME280;57495;49.922;7.966;2022-10-16T07:11:10;99890.66;;;14.23;100.00
70133;BME280;57495;49.922;7.966;2022-10-16T07:13:12;99897.41;;;14.27;100.00
70133;BME280;57495;49.922;7.966;2022-10-16T07:15:14;99903.75;;;14.34;100.00
70133;BME280;57495;49.922;7.966;2022-10-16T07:17:15;99908.47;;;14.40;100.00
70133;BME280;57495;49.922;7.966;2022-10-16T07:19:17;99905.44;;;14.43;100.00
70133;BME280;57495;49.922;7.966;2022-10-16T07:21:19;99918.56;;;14.46;100.00
70133;BME280;57495;49.922;7.966;2022-10-16T07:23:21;99925.25;;;14.50;100.00
70133;BME280;57495;49.922;7.966;2022-10-16T07:25:22;99920.56;;;14.53;100.00
70133;BME280;57495;49.922;7.966;2022-10-16T07:27:25;99920.38;;;14.54;100.00
70133;BME280;57495;49.922;7.966;2022-10-16T07:29:27;99921.91;;;14.57;100.00
70133;BME280;57495;49.922;7.966;2022-10-16T07:31:28;99926.97;;;14.60;100.00
70133;BME280;57495;49.922;7.966;2022-10-16T07:33:30;99925.97;;;14.61;100.00
70133;BME280;57495;49.922;7.966;2022-10-16T07:35:32;99936.19;;;14.65;100.00
70133;BME280;57495;49.922;7.966;2022-10-16T07:37:33;99938.72;;;14.67;100.00
70133;BME280;57495;49.922;7.966;2022-10-16T07:39:34;99937.72;;;14.68;100.00
70133;BME280;57495;49.922;7.966;2022-10-16T07:41:36;99938.91;;;14.65;100.00
70133;BME280;57495;49.922;7.966;2022-10-16T07:43:39;99937.72;;;14.68;100.00
70133;BME280;57495;49.922;7.966;2022-10-16T07:45:46;99943.94;;;14.68;100.00
70133;BME280;57495;49.922;7.966;2022-10-16T07:47:48;99954.88;;;14.75;100.00
70133;BME280;57495;49.922;7.966;2022-10-16T07:49:50;99951.81;;;14.78;100.00
70133;BME280;57495;49.922;7.966;2022-10-16T07:51:51;99956.03;;;14.81;100.00
70133;BME280;57495;49.922;7.966;2022-10-16T07:53:53;99955.50;;;14.85;100.00
70133;BME280;57495;49.922;7.966;2022-10-16T07:55:57;99959.53;;;14.89;100.00
70133;BME280;57495;49.922;7.966;2022-10-16T07:57:59;99974.34;;;14.94;100.00
70133;BME280;57495;49.922;7.966;2022-10-16T08:00:02;99976.03;;;14.95;100.00
70133;BME280;57495;49.922;7.966;2022-10-16T08:02:04;99982.75;;;14.99;100.00
70133;BME280;57495;49.922;7.966;2022-10-16T08:04:05;99990.47;;;15.02;100.00
70133;BME280;57495;49.922;7.966;2022-10-16T08:06:07;99985.75;;;15.04;100.00
70133;BME280;57495;49.922;7.966;2022-10-16T08:08:11;99989.97;;;15.06;100.00
70133;BME280;57495;49.922;7.966;2022-10-16T08:10:16;99990.94;;;15.14;100.00
70133;BME280;57495;49.922;7.966;2022-10-16T08:12:17;99990.94;;;15.14;100.00
70133;BME280;57495;49.922;7.966;2022-10-16T08:14:19;100000.88;;;15.13;100.00
70133;BME280;57495;49.922;7.966;2022-10-16T08:16:22;100001.22;;;15.18;100.00
70133;BME280;57495;49.922;7.966;2022-10-16T08:18:23;100003.56;;;15.21;100.00
70133;BME280;57495;49.922;7.966;2022-10-16T08:20:25;100008.97;;;15.21;100.00
70133;BME280;57495;49.922;7.966;2022-10-16T08:22:27;100004.91;;;15.25;100.00
70133;BME280;57495;49.922;7.966;2022-10-16T08:24:28;100009.75;;;15.30;100.00
70133;BME280;57495;49.922;7.966;2022-10-16T08:26:31;100011.06;;;15.42;100.00
70133;BME280;57495;49.922;7.966;2022-10-16T08:28:32;100012.06;;;15.41;100.00
70133;BME280;57495;49.922;7.966;2022-10-16T08:30:34;100011.88;;;15.43;100.00
70133;BME280;57495;49.922;7.966;2022-10-16T08:32:37;100016.44;;;15.42;100.00
70133;BME280;57495;49.922;7.966;2022-10-16T08:34:39;100026.41;;;15.42;100.00
70133;BME280;57495;49.922;7.966;2022-10-16T08:36:40;100020.16;;;15.41;100.00
70133;BME280;57495;49.922;7.966;2022-10-16T08:38:41;100019.66;;;15.38;100.00
70133;BME280;57495;49.922;7.966;2022-10-16T08:40:43;100022.53;;;15.36;100.00
70133;BME280;57495;49.922;7.966;2022-10-16T08:42:59;100030.97;;;15.33;100.00
70133;BME280;57495;49.922;7.966;2022-10-16T08:45:25;100044.59;;;15.32;100.00
70133;BME280;57495;49.922;7.966;2022-10-16T08:47:41;100042.25;;;15.28;100.00
70133;BME280;57495;49.922;7.966;2022-10-16T08:49:55;100044.78;;;15.30;100.00
70133;BME280;57495;49.922;7.966;2022-10-16T08:51:58;100043.13;;;15.21;100.00
70133;BME280;57495;49.922;7.966;2022-10-16T08:54:03;100048.34;;;15.22;100.00
70133;BME280;57495;49.922;7.966;2022-10-16T08:56:05;100040.66;;;15.03;100.00
70133;BME280;57495;49.922;7.966;2022-10-16T08:58:12;100046.88;;;14.95;100.00
70133;BME280;57495;49.922;7.966;2022-10-16T09:00:21;100038.25;;;15.08;100.00
70133;BME280;57495;49.922;7.966;2022-10-16T09:02:26;100040.91;;;15.24;100.00
70133;BME280;57495;49.922;7.966;2022-10-16T09:04:54;100042.25;;;15.37;100.00
70133;BME280;57495;49.922;7.966;2022-10-16T09:07:01;100058.75;;;15.42;100.00
70133;BME280;57495;49.922;7.966;2022-10-16T09:09:31;100068.81;;;15.48;100.00
70133;BME280;57495;49.922;7.966;2022-10-16T09:11:45;100058.38;;;15.45;100.00
70133;BME280;57495;49.922;7.966;2022-10-16T09:13:53;100058.88;;;15.49;100.00
70133;BME280;57495;49.922;7.966;2022-10-16T09:16:10;100068.47;;;15.51;100.00
70133;BME280;57495;49.922;7.966;2022-10-16T09:18:17;100068.47;;;15.51;100.00
70133;BME280;57495;49.922;7.966;2022-10-16T09:20:30;100066.28;;;15.55;100.00
70133;BME280;57495;49.922;7.966;2022-10-16T09:22:32;100064.91;;;15.59;100.00
70133;BME280;57495;49.922;7.966;2022-10-16T09:24:34;100070.09;;;15.69;100.00
70133;BME280;57495;49.922;7.966;2022-10-16T09:26:35;100073.81;;;15.68;100.00
70133;BME280;57495;49.922;7.966;2022-10-16T09:28:37;100073.13;;;15.74;100.00
70133;BME280;57495;49.922;7.966;2022-10-16T09:30:38;100068.34;;;15.84;100.00
70133;BME280;57495;49.922;7.966;2022-10-16T09:32:41;100076.53;;;15.99;100.00
70133;BME280;57495;49.922;7.966;2022-10-16T09:34:45;100074.31;;;16.11;100.00
70133;BME280;57495;49.922;7.966;2022-10-16T09:36:50;100069.50;;;16.21;100.00
70133;BME280;57495;49.922;7.966;2022-10-16T09:39:03;100078.88;;;16.33;100.00
70133;BME280;57495;49.922;7.966;2022-10-16T09:41:14;100072.66;;;16.33;100.00
70133;BME280;57495;49.922;7.966;2022-10-16T09:43:21;100072.66;;;16.33;100.00
70133;BME280;57495;49.922;7.966;2022-10-16T09:45:24;100084.41;;;16.40;100.00
70133;BME280;57495;49.922;7.966;2022-10-16T09:47:27;100090.22;;;16.52;100.00
70133;BME280;57495;49.922;7.966;2022-10-16T09:49:29;100084.56;;;16.61;100.00
70133;BME280;57495;49.922;7.966;2022-10-16T09:51:32;100080.25;;;16.75;100.00
70133;BME280;57495;49.922;7.966;2022-10-16T09:53:41;100086.56;;;16.91;100.00
70133;BME280;57495;49.922;7.966;2022-10-16T09:55:48;100083.81;;;16.99;100.00
70133;BME280;57495;49.922;7.966;2022-10-16T09:57:51;100089.78;;;17.09;100.00
70133;BME280;57495;49.922;7.966;2022-10-16T09:59:54;100086.78;;;17.04;100.00
70133;BME280;57495;49.922;7.966;2022-10-16T10:01:55;100088.38;;;17.13;100.00
70133;BME280;57495;49.922;7.966;2022-10-16T10:03:59;100082.25;;;17.19;100.00
70133;BME280;57495;49.922;7.966;2022-10-16T10:06:13;100083.25;;;17.04;100.00
70133;BME280;57495;49.922;7.966;2022-10-16T10:08:18;100090.72;;;17.16;100.00
70133;BME280;57495;49.922;7.966;2022-10-16T10:10:23;100084.84;;;17.13;100.00
70133;BME280;57495;49.922;7.966;2022-10-16T10:12:26;100092.34;;;17.03;100.00
70133;BME280;57495;49.922;7.966;2022-10-16T10:14:31;100091.56;;;17.17;100.00
70133;BME280;57495;49.922;7.966;2022-10-16T10:16:36;100086.25;;;17.24;100.00
70133;BME280;57495;49.922;7.966;2022-10-16T10:18:37;100091.09;;;17.13;100.00
70133;BME280;57495;49.922;7.966;2022-10-16T10:20:39;100079.91;;;17.16;100.00
70133;BME280;57495;49.922;7.966;2022-10-16T10:22:42;100082.16;;;17.28;100.00
70133;BME280;57495;49.922;7.966;2022-10-16T10:24:55;100090.38;;;17.19;100.00
70133;BME280;57495;49.922;7.966;2022-10-16T10:27:05;100089.97;;;17.23;100.00
70133;BME280;57495;49.922;7.966;2022-10-16T10:29:16;100088.22;;;17.30;100.00
70133;BME280;57495;49.922;7.966;2022-10-16T10:31:25;100087.69;;;17.34;100.00
70133;BME280;57495;49.922;7.966;2022-10-16T10:33:33;100087.09;;;17.54;100.00
70133;BME280;57495;49.922;7.966;2022-10-16T10:35:44;100085.81;;;17.35;100.00
70133;BME280;57495;49.922;7.966;2022-10-16T10:38:00;100091.66;;;17.24;100.00
70133;BME280;57495;49.922;7.966;2022-10-16T10:40:11;100087.22;;;17.31;100.00
70133;BME280;57495;49.922;7.966;2022-10-16T10:42:23;100089.91;;;17.46;100.00
70133;BME280;57495;49.922;7.966;2022-10-16T10:44:55;100093.44;;;17.61;100.00